Time;durP1;ratioP1;P1;durP2;ratioP2;P2;SDS_P1;SDS_P2;PMS_P1;PMS_P2;Temp;Humidity;BMP_temperature;BMP_pressure;BME280_temperature;BME280_humidity;BME280_pressure;Samples;Min_cycle;Max_cycle;Signal;HPM_P1;HPM_P2
2023/03/30 00:01:04;;;;;;;14.15;7.20;;;;;;;9.43;84.80;100412.78;5031800;28;20137;-67
2023/03/30 00:03:37;;;;;;;10.02;6.68;;;;;;;9.47;84.68;100415.13;5028038;28;20053;-67
2023/03/30 00:06:06;;;;;;;11.18;7.10;;;;;;;9.45;84.81;100414.38;5011304;28;20137;-67
2023/03/30 00:08:33;;;;;;;11.32;6.70;;;;;;;9.43;85.26;100413.63;5027169;28;20056;-67
2023/03/30 00:11:07;;;;;;;10.57;6.93;;;;;;;9.40;85.71;100405.91;5026586;28;21063;-67
2023/03/30 00:13:35;;;;;;;9.63;6.53;;;;;;;9.39;85.57;100409.47;5013574;28;20041;-66
2023/03/30 00:16:05;;;;;;;9.18;6.68;;;;;;;9.39;85.18;100405.06;5032405;28;20053;-67
2023/03/30 00:18:33;;;;;;;8.40;6.32;;;;;;;9.40;85.55;100403.28;5009749;28;20069;-67
2023/03/30 00:21:03;;;;;;;9.75;6.55;;;;;;;9.39;85.95;100406.84;5013160;28;20049;-66
2023/03/30 00:23:31;;;;;;;10.32;6.25;;;;;;;9.38;86.89;100399.91;5029031;28;20057;-67
2023/03/30 00:25:59;;;;;;;9.50;6.93;;;;;;;9.35;86.99;100403.53;5032550;28;20078;-67
2023/03/30 00:28:29;;;;;;;9.85;5.97;;;;;;;9.35;87.64;100390.41;5028959;28;20501;-67
2023/03/30 00:30:57;;;;;;;10.52;6.40;;;;;;;9.32;88.11;100387.09;5013723;28;20057;-67
2023/03/30 00:33:24;;;;;;;9.43;6.95;;;;;;;9.28;88.92;100383.00;5012255;28;20465;-67
2023/03/30 00:36:10;;;;;;;;;;;;;;;9.16;89.79;100371.38;5013443;28;20060;-67
2023/03/30 00:38:40;;;;;;;11.70;7.10;;;;;;;9.16;89.83;100374.03;5026916;28;19929;-67
2023/03/30 00:41:08;;;;;;;11.95;6.63;;;;;;;9.14;90.83;100373.28;5015044;28;20037;-67
2023/03/30 00:43:54;;;;;;;12.48;7.07;;;;;;;9.10;91.67;100367.34;5029280;28;20502;-67
2023/03/30 00:46:22;;;;;;;;;;;;;;;9.11;90.77;100369.03;5029692;28;20061;-67
2023/03/30 00:48:49;;;;;;;9.02;6.15;;;;;;;9.12;91.86;100367.25;5012627;28;20369;-67
2023/03/30 00:51:17;;;;;;;7.38;6.43;;;;;;;9.08;92.22;100363.94;5031478;28;20500;-66
2023/03/30 00:53:47;;;;;;;11.18;6.55;;;;;;;9.10;91.65;100358.63;5015244;28;20517;-67
2023/03/30 00:56:17;;;;;;;11.65;6.85;;;;;;;9.11;91.95;100341.91;5024052;28;20528;-66
2023/03/30 00:58:45;;;;;;;12.82;6.95;;;;;;;9.07;92.12;100341.25;5016574;28;20514;-67
2023/03/30 01:01:15;;;;;;;10.93;6.88;;;;;;;9.10;92.08;100343.72;5038823;28;20049;-67
2023/03/30 01:03:44;;;;;;;10.32;6.80;;;;;;;9.11;92.35;100336.66;5028170;28;20167;-67
2023/03/30 01:06:13;;;;;;;10.10;6.07;;;;;;;9.14;92.53;100333.88;5008512;28;20082;-67
2023/03/30 01:08:42;;;;;;;10.23;7.05;;;;;;;9.08;92.87;100327.19;5025685;28;20045;-68
2023/03/30 01:11:10;;;;;;;10.23;7.20;;;;;;;9.08;93.46;100321.09;5029485;28;20059;-67
2023/03/30 01:13:41;;;;;;;12.10;7.70;;;;;;;9.04;94.39;100314.31;5015821;28;20053;-67
2023/03/30 01:16:27;;;;;;;9.82;6.35;;;;;;;9.07;93.62;100304.47;5013752;28;20049;-67
2023/03/30 01:19:17;;;;;;;9.63;6.37;;;;;;;9.08;93.86;100302.69;5009096;28;20053;-67
2023/03/30 01:21:50;;;;;;;12.13;6.80;;;;;;;9.09;93.69;100294.72;5022948;28;20052;-66
2023/03/30 01:24:41;;;;;;;14.05;7.03;;;;;;;9.10;94.31;100291.19;5027952;28;20055;-67
2023/03/30 01:27:26;;;;;;;12.98;7.47;;;;;;;9.10;95.01;100288.56;5025573;28;20053;-66
2023/03/30 01:30:15;;;;;;;8.37;6.40;;;;;;;9.07;95.47;100277.38;5009196;28;20478;-67
2023/03/30 01:32:48;;;;;;;8.95;6.28;;;;;;;9.06;95.78;100270.44;5022267;28;20045;-68
2023/03/30 01:35:24;;;;;;;11.75;7.10;;;;;;;9.08;95.37;100263.31;5032136;28;20087;-67
2023/03/30 01:38:13;;;;;;;9.75;7.38;;;;;;;9.07;95.05;100262.47;5026472;28;20356;-67
2023/03/30 01:41:14;;;;;;;10.55;6.55;;;;;;;9.09;94.64;100265.84;5008486;28;20267;-66
2023/03/30 01:43:50;;;;;;;12.07;6.38;;;;;;;9.09;95.70;100257.13;5005487;28;20050;-67
2023/03/30 01:46:24;;;;;;;7.93;6.35;;;;;;;9.10;95.47;100245.69;5006568;28;20144;-67
2023/03/30 01:49:11;;;;;;;10.07;6.53;;;;;;;9.06;96.22;100247.66;5010833;28;20061;-67
2023/03/30 01:51:44;;;;;;;10.73;6.95;;;;;;;9.04;96.76;100249.50;5026338;28;20049;-67
2023/03/30 01:54:18;;;;;;;10.88;6.85;;;;;;;9.00;97.22;100240.13;5011322;28;20133;-67
2023/03/30 01:56:53;;;;;;;10.50;6.07;;;;;;;8.98;97.22;100241.16;4988405;28;20044;-67
2023/03/30 01:59:28;;;;;;;8.10;6.45;;;;;;;8.93;97.16;100241.44;5010540;28;20053;-67
2023/03/30 02:02:02;;;;;;;9.93;6.45;;;;;;;8.92;97.93;100236.28;5011590;28;20058;-67
2023/03/30 02:04:35;;;;;;;9.60;6.63;;;;;;;8.89;97.80;100234.66;5007335;28;20060;-67
2023/03/30 02:07:09;;;;;;;8.95;6.32;;;;;;;8.92;97.80;100239.75;5008784;28;20059;-67
2023/03/30 02:09:37;;;;;;;8.77;6.70;;;;;;;8.91;98.47;100237.19;5036067;28;20128;-67
2023/03/30 02:12:06;;;;;;;9.57;6.95;;;;;;;8.92;98.22;100246.78;5010074;28;20047;-68
2023/03/30 02:14:34;;;;;;;8.77;6.10;;;;;;;8.92;98.58;100249.41;5006812;28;20067;-67
2023/03/30 02:17:06;;;;;;;9.57;6.20;;;;;;;8.88;98.65;100231.19;5032183;28;21186;-67
2023/03/30 02:19:36;;;;;;;11.25;7.03;;;;;;;8.84;98.68;100229.69;5016107;28;20042;-67
2023/03/30 02:22:05;;;;;;;10.35;6.47;;;;;;;8.86;98.83;100229.59;5029079;28;20056;-67
2023/03/30 02:24:32;;;;;;;8.15;6.20;;;;;;;8.88;99.00;100235.59;5016615;28;20048;-67
2023/03/30 02:27:01;;;;;;;9.20;6.20;;;;;;;8.89;97.90;100224.16;5009433;28;20045;-66
2023/03/30 02:29:28;;;;;;;11.43;7.15;;;;;;;8.86;98.45;100213.84;5009039;28;20140;-67
2023/03/30 02:31:56;;;;;;;12.93;7.50;;;;;;;8.77;99.58;100212.59;5027212;28;20368;-66
2023/03/30 02:35:09;;;;;;;8.32;6.50;;;;;;;8.79;99.86;100208.13;5007803;28;20261;-67
2023/03/30 02:37:36;;;;;;;11.50;6.68;;;;;;;8.75;100.00;100208.38;4997880;28;20066;-67
2023/03/30 02:40:12;;;;;;;8.55;6.30;;;;;;;8.76;100.00;100205.66;5023115;28;20041;-67
2023/03/30 02:42:39;;;;;;;12.90;7.10;;;;;;;8.82;100.00;100202.66;5027400;28;20041;-67
2023/03/30 02:45:38;;;;;;;11.93;6.85;;;;;;;8.78;100.00;100197.69;5026723;28;20060;-66
2023/03/30 02:48:22;;;;;;;10.35;6.80;;;;;;;8.74;100.00;100189.16;5023382;28;20053;-67
2023/03/30 02:51:11;;;;;;;13.30;6.97;;;;;;;8.73;100.00;100184.00;5025322;28;20060;-67
2023/03/30 02:53:45;;;;;;;8.90;6.95;;;;;;;8.68;100.00;100163.25;5026411;28;20449;-68
2023/03/30 02:56:27;;;;;;;10.40;6.72;;;;;;;8.72;100.00;100169.19;5027475;28;20136;-67
2023/03/30 02:59:03;;;;;;;10.88;7.35;;;;;;;8.67;100.00;100172.06;5005840;28;20485;-68
2023/03/30 03:01:36;;;;;;;9.38;7.57;;;;;;;8.70;100.00;100161.41;5005464;28;20045;-68
2023/03/30 03:04:04;;;;;;;12.27;7.28;;;;;;;8.65;100.00;100158.22;5023316;28;20048;-67
2023/03/30 03:06:31;;;;;;;10.27;7.35;;;;;;;8.60;100.00;100155.84;5012704;28;20046;-67
2023/03/30 03:08:59;;;;;;;9.70;7.22;;;;;;;8.56;100.00;100138.59;5007454;28;20141;-68
2023/03/30 03:11:26;;;;;;;9.05;6.18;;;;;;;8.68;100.00;100139.66;5021390;28;20223;-66
2023/03/30 03:13:54;;;;;;;10.57;7.80;;;;;;;8.66;100.00;100140.69;5023521;28;20530;-66
2023/03/30 03:16:21;;;;;;;10.15;6.68;;;;;;;8.61;100.00;100140.97;5032432;28;20524;-67
2023/03/30 03:18:49;;;;;;;12.55;7.97;;;;;;;8.56;100.00;100133.34;5015425;28;20073;-68
2023/03/30 03:21:16;;;;;;;13.65;8.70;;;;;;;8.59;100.00;100133.16;5036915;28;20057;-66
2023/03/30 03:23:47;;;;;;;11.63;7.28;;;;;;;8.54;100.00;100134.38;5038473;28;20131;-66
2023/03/30 03:26:14;;;;;;;12.32;7.90;;;;;;;8.55;100.00;100123.78;5036671;28;20136;-67
2023/03/30 03:28:41;;;;;;;10.95;7.38;;;;;;;8.62;100.00;100132.13;5031911;28;20080;-67
2023/03/30 03:31:08;;;;;;;14.55;7.93;;;;;;;8.52;100.00;100134.47;5030946;28;20045;-67
2023/03/30 03:33:36;;;;;;;11.15;8.00;;;;;;;8.49;100.00;100120.69;5032141;28;20122;-68
2023/03/30 03:36:04;;;;;;;13.90;8.68;;;;;;;8.50;100.00;100120.56;5011945;28;20053;-67
2023/03/30 03:38:31;;;;;;;16.20;8.68;;;;;;;8.55;100.00;100121.16;5029560;28;20053;-67
2023/03/30 03:40:59;;;;;;;10.70;7.55;;;;;;;8.55;100.00;100122.94;5025260;28;20145;-66
2023/03/30 03:43:26;;;;;;;16.23;8.32;;;;;;;8.55;100.00;100117.69;5026167;28;20137;-67
2023/03/30 03:45:54;;;;;;;11.95;8.18;;;;;;;8.55;100.00;100105.41;5027949;28;20510;-67
2023/03/30 03:48:22;;;;;;;16.95;9.00;;;;;;;8.49;100.00;100102.31;5025906;28;20058;-66
2023/03/30 03:50:57;;;;;;;12.40;8.38;;;;;;;8.52;100.00;100102.97;4992717;28;20494;-67
2023/03/30 03:53:26;;;;;;;14.70;8.60;;;;;;;8.47;100.00;100093.69;5031455;28;20954;-67
2023/03/30 03:55:54;;;;;;;13.93;8.10;;;;;;;8.47;100.00;100091.09;5028400;28;20144;-67
2023/03/30 03:58:22;;;;;;;12.38;7.97;;;;;;;8.53;100.00;100086.31;5012023;28;20062;-68
2023/03/30 04:00:49;;;;;;;11.07;8.48;;;;;;;8.53;100.00;100082.84;5014748;28;20051;-68
2023/03/30 04:03:17;;;;;;;14.38;8.10;;;;;;;8.58;100.00;100072.91;5018110;28;20045;-67
2023/03/30 04:05:44;;;;;;;16.75;8.52;;;;;;;8.59;100.00;100083.31;5028792;28;20089;-67
2023/03/30 04:08:12;;;;;;;13.38;8.75;;;;;;;8.62;100.00;100079.66;5028824;28;20144;-67
2023/03/30 04:10:40;;;;;;;12.70;8.48;;;;;;;8.62;100.00;100072.63;5028148;28;20739;-68
2023/03/30 04:13:08;;;;;;;11.68;8.20;;;;;;;8.63;100.00;100060.34;5024766;28;20117;-68
2023/03/30 04:15:35;;;;;;;14.23;9.57;;;;;;;8.64;100.00;100059.41;5017148;28;20483;-68
2023/03/30 04:18:04;;;;;;;12.27;9.35;;;;;;;8.60;100.00;100044.78;5010129;28;20055;-68
2023/03/30 04:20:31;;;;;;;15.95;9.43;;;;;;;8.61;100.00;100049.13;5032321;28;20516;-67
2023/03/30 04:23:00;;;;;;;17.52;9.38;;;;;;;8.59;100.00;100045.72;5030734;28;20045;-67
2023/03/30 04:25:28;;;;;;;12.43;7.85;;;;;;;8.56;100.00;100046.78;5023681;28;20357;-68
2023/03/30 04:27:56;;;;;;;14.77;9.20;;;;;;;8.56;100.00;100043.31;5028433;28;20446;-66
2023/03/30 04:30:23;;;;;;;14.55;9.13;;;;;;;8.56;100.00;100038.91;5028073;28;20076;-66
2023/03/30 04:33:01;;;;;;;14.93;8.15;;;;;;;8.58;100.00;100039.63;5028980;28;20058;-67
2023/03/30 04:35:30;;;;;;;11.25;8.25;;;;;;;8.60;100.00;100044.78;5028602;28;20056;-67
2023/03/30 04:37:58;;;;;;;13.88;8.45;;;;;;;8.59;100.00;100040.47;5027667;28;20041;-67
2023/03/30 04:40:26;;;;;;;12.88;8.13;;;;;;;8.56;100.00;100035.44;5010559;28;20049;-67
2023/03/30 04:42:53;;;;;;;10.68;8.73;;;;;;;8.59;100.00;100043.94;5022453;28;20721;-67
2023/03/30 04:45:20;;;;;;;14.48;8.60;;;;;;;8.58;100.00;100041.44;5027591;28;20056;-67
2023/03/30 04:47:48;;;;;;;12.25;8.57;;;;;;;8.60;100.00;100036.91;5023528;28;20124;-67
2023/03/30 04:50:15;;;;;;;12.48;7.63;;;;;;;8.63;100.00;100037.59;5024994;28;20531;-67
2023/03/30 04:52:42;;;;;;;13.05;9.02;;;;;;;8.63;100.00;100034.97;5006453;28;20502;-68
2023/03/30 04:55:10;;;;;;;12.02;8.13;;;;;;;8.62;100.00;100035.91;5020838;28;20153;-67
2023/03/30 04:57:37;;;;;;;12.52;8.50;;;;;;;8.60;100.00;100027.28;5026446;28;20136;-67
2023/03/30 05:00:07;;;;;;;12.95;8.65;;;;;;;8.58;100.00;100021.28;5030749;28;20044;-68
2023/03/30 05:02:35;;;;;;;14.93;8.50;;;;;;;8.58;100.00;100029.16;5021700;28;20057;-68
2023/03/30 05:05:03;;;;;;;13.95;9.13;;;;;;;8.60;100.00;100026.41;5026336;28;21434;-67
2023/03/30 05:07:30;;;;;;;11.73;7.97;;;;;;;8.56;100.00;100032.81;5027589;28;20049;-68
2023/03/30 05:09:57;;;;;;;14.75;8.40;;;;;;;8.59;100.00;100030.00;5027921;28;20060;-68
2023/03/30 05:12:25;;;;;;;13.63;7.95;;;;;;;8.60;100.00;100027.28;5008709;28;20464;-68
2023/03/30 05:14:52;;;;;;;10.80;7.32;;;;;;;8.67;100.00;100024.28;5026001;28;20049;-68
2023/03/30 05:17:19;;;;;;;16.77;8.32;;;;;;;8.67;100.00;100003.28;5009426;28;20413;-68
2023/03/30 05:19:46;;;;;;;11.40;7.07;;;;;;;8.72;100.00;100009.09;5027988;28;20049;-68
2023/03/30 05:22:14;;;;;;;11.93;7.68;;;;;;;8.71;100.00;100000.38;5027524;28;20045;-69
2023/03/30 05:24:41;;;;;;;13.40;8.02;;;;;;;8.72;100.00;99988.94;5023683;28;20069;-68
2023/03/30 05:27:08;;;;;;;11.82;7.22;;;;;;;8.72;100.00;99969.75;5024466;28;20071;-68
2023/03/30 05:29:36;;;;;;;11.93;7.28;;;;;;;8.75;100.00;99970.41;4992597;28;20510;-67
2023/03/30 05:32:03;;;;;;;11.82;7.50;;;;;;;8.81;100.00;99963.91;5026399;28;20051;-68
2023/03/30 05:34:30;;;;;;;10.65;7.05;;;;;;;8.81;100.00;99958.66;5025705;28;20117;-68
2023/03/30 05:36:57;;;;;;;12.63;7.18;;;;;;;8.80;100.00;99959.63;5011923;28;20057;-69
2023/03/30 05:39:25;;;;;;;8.60;6.63;;;;;;;8.82;100.00;99971.69;5014725;28;21811;-67
2023/03/30 05:41:53;;;;;;;14.90;7.45;;;;;;;8.84;100.00;99980.31;4988253;28;20045;-67
2023/03/30 05:44:21;;;;;;;16.65;7.32;;;;;;;8.85;100.00;99981.16;5020485;28;20189;-68
2023/03/30 05:46:48;;;;;;;11.25;7.65;;;;;;;8.82;100.00;99978.72;5015746;28;20053;-67
2023/03/30 05:49:16;;;;;;;17.17;6.75;;;;;;;8.80;100.00;99978.00;5017909;28;20401;-66
2023/03/30 05:51:43;;;;;;;10.35;7.90;;;;;;;8.80;100.00;99970.97;5022019;28;20132;-67
2023/03/30 05:54:11;;;;;;;16.70;6.55;;;;;;;8.77;100.00;99968.50;5006249;28;20054;-69
2023/03/30 05:56:41;;;;;;;12.38;6.80;;;;;;;8.75;100.00;99965.16;5025329;28;20061;-69
2023/03/30 05:59:09;;;;;;;11.32;6.82;;;;;;;8.78;100.00;99964.97;5021810;28;20064;-68
2023/03/30 06:01:37;;;;;;;8.63;5.97;;;;;;;8.77;100.00;99967.66;5025181;28;20390;-67
2023/03/30 06:04:04;;;;;;;13.13;7.05;;;;;;;8.77;100.00;99965.88;5020484;28;20053;-68
2023/03/30 06:06:32;;;;;;;8.10;6.13;;;;;;;8.72;100.00;99961.88;5021716;28;20077;-66
2023/03/30 06:08:59;;;;;;;10.88;6.63;;;;;;;8.78;100.00;99949.22;5009011;28;20304;-67
2023/03/30 06:11:27;;;;;;;9.95;7.07;;;;;;;8.83;100.00;99936.66;5027481;28;20060;-67
2023/03/30 06:13:54;;;;;;;12.18;6.80;;;;;;;8.86;100.00;99935.59;5022137;28;20510;-67
2023/03/30 06:16:21;;;;;;;8.75;6.20;;;;;;;8.87;100.00;99934.66;5022008;28;20106;-66
2023/03/30 06:18:48;;;;;;;10.15;6.07;;;;;;;8.90;100.00;99926.59;5020331;28;20052;-67
2023/03/30 06:21:16;;;;;;;10.68;6.03;;;;;;;8.88;100.00;99920.63;5019756;28;20046;-67
2023/03/30 06:23:43;;;;;;;11.60;6.82;;;;;;;8.93;100.00;99928.19;5016260;28;20075;-66
2023/03/30 06:26:10;;;;;;;11.15;5.78;;;;;;;9.00;100.00;99919.81;5008402;28;20584;-67
2023/03/30 06:28:38;;;;;;;9.80;5.93;;;;;;;8.97;100.00;99922.66;5021993;28;20516;-67
2023/03/30 06:31:09;;;;;;;11.68;6.35;;;;;;;9.06;100.00;99921.22;5022268;28;20084;-68
2023/03/30 06:33:36;;;;;;;15.35;6.82;;;;;;;9.08;100.00;99916.72;5007124;28;20060;-67
2023/03/30 06:36:10;;;;;;;8.98;5.90;;;;;;;9.11;100.00;99909.50;5006608;28;20060;-68
2023/03/30 06:38:38;;;;;;;15.65;5.72;;;;;;;9.14;100.00;99918.97;5024000;28;20069;-68
2023/03/30 06:41:08;;;;;;;11.15;5.50;;;;;;;9.22;99.88;99929.78;5019748;28;20050;-67
2023/03/30 06:43:36;;;;;;;9.55;5.78;;;;;;;9.31;99.39;99915.22;5026276;28;20758;-68
2023/03/30 06:46:04;;;;;;;8.40;5.32;;;;;;;9.37;99.26;99927.97;5007486;28;20057;-68
2023/03/30 06:48:32;;;;;;;12.70;6.05;;;;;;;9.40;98.46;99922.50;5027674;28;20573;-67
2023/03/30 06:50:59;;;;;;;10.13;5.93;;;;;;;9.43;98.20;99932.81;5018086;28;20052;-67
2023/03/30 06:53:27;;;;;;;6.13;5.10;;;;;;;9.41;98.53;99928.59;5006073;28;20061;-68
2023/03/30 06:55:56;;;;;;;11.48;6.05;;;;;;;9.40;98.32;99930.38;5008563;28;20053;-66
2023/03/30 06:58:24;;;;;;;9.70;5.50;;;;;;;9.46;97.53;99918.66;5020959;28;20060;-67
2023/03/30 07:00:51;;;;;;;9.52;5.57;;;;;;;9.47;97.92;99913.28;5014338;28;20046;-67
2023/03/30 07:03:19;;;;;;;9.82;5.88;;;;;;;9.34;98.71;99904.53;5007071;28;20037;-67
2023/03/30 07:05:49;;;;;;;12.25;6.22;;;;;;;9.41;99.19;99895.31;5016170;28;20054;-67
2023/03/30 07:08:18;;;;;;;11.95;6.32;;;;;;;9.42;97.94;99899.63;5026774;28;20073;-67
2023/03/30 07:10:46;;;;;;;10.52;5.47;;;;;;;9.42;97.86;99898.78;5009431;28;20049;-68
2023/03/30 07:13:15;;;;;;;8.43;5.32;;;;;;;9.39;98.42;99899.81;5028101;28;20292;-68
2023/03/30 07:15:43;;;;;;;13.98;5.97;;;;;;;9.50;98.35;99905.22;5011163;28;20048;-68
2023/03/30 07:18:10;;;;;;;13.88;6.22;;;;;;;9.58;97.75;99899.44;5034269;28;20056;-66
2023/03/30 07:20:37;;;;;;;13.48;5.95;;;;;;;9.60;97.75;99900.19;5024687;28;20149;-67
2023/03/30 07:23:06;;;;;;;11.07;5.10;;;;;;;9.66;97.40;99875.28;5044286;28;20061;-67
2023/03/30 07:25:33;;;;;;;8.75;6.32;;;;;;;9.74;96.86;99892.22;5024114;28;20050;-67
2023/03/30 07:28:01;;;;;;;8.15;5.50;;;;;;;9.81;96.89;99882.97;5025802;28;20045;-68
2023/03/30 07:30:28;;;;;;;10.57;6.20;;;;;;;9.87;96.00;99882.56;5025352;28;20046;-66
2023/03/30 07:32:55;;;;;;;10.82;5.70;;;;;;;9.98;96.01;99876.56;5029034;28;20060;-67
2023/03/30 07:35:25;;;;;;;9.93;5.78;;;;;;;10.09;95.11;99878.47;5026131;28;20053;-68
2023/03/30 07:37:52;;;;;;;13.32;6.13;;;;;;;10.14;94.56;99874.59;5005682;28;20050;-67
2023/03/30 07:40:29;;;;;;;11.40;5.32;;;;;;;10.22;94.65;99865.31;5027124;28;20077;-66
2023/03/30 07:42:56;;;;;;;9.48;5.38;;;;;;;10.35;94.12;99861.75;5023704;28;20045;-68
2023/03/30 07:45:23;;;;;;;11.60;5.13;;;;;;;10.47;93.52;99860.03;5025610;28;20057;-67
2023/03/30 07:47:50;;;;;;;8.65;5.53;;;;;;;10.62;92.88;99866.00;5032897;28;20136;-66
2023/03/30 07:50:20;;;;;;;6.85;4.80;;;;;;;10.64;91.32;99858.84;5028757;28;20045;-66
2023/03/30 07:52:50;;;;;;;9.00;4.90;;;;;;;10.67;91.79;99863.03;5022830;28;20467;-67
2023/03/30 07:55:17;;;;;;;8.20;4.95;;;;;;;10.71;91.34;99860.09;5015469;28;20049;-67
2023/03/30 07:57:45;;;;;;;7.60;4.88;;;;;;;10.67;90.89;99848.09;5025134;28;20386;-67
2023/03/30 08:00:15;;;;;;;9.02;4.60;;;;;;;10.77;90.79;99850.94;5032650;28;20046;-67
2023/03/30 08:02:43;;;;;;;10.07;5.13;;;;;;;10.85;90.18;99846.78;5028667;28;20045;-68
2023/03/30 08:05:10;;;;;;;9.27;5.20;;;;;;;10.88;89.68;99854.44;5025281;28;20493;-67
2023/03/30 08:07:38;;;;;;;7.32;5.05;;;;;;;10.92;89.98;99854.22;5035926;28;20060;-66
2023/03/30 08:10:06;;;;;;;7.43;4.00;;;;;;;10.98;89.44;99859.03;5037217;28;20519;-67
2023/03/30 08:12:34;;;;;;;6.50;4.50;;;;;;;11.03;89.28;99852.50;5023919;28;20053;-66
2023/03/30 08:15:02;;;;;;;10.80;5.13;;;;;;;11.09;89.06;99849.41;5031671;28;20055;-66
2023/03/30 08:17:29;;;;;;;6.90;4.70;;;;;;;11.14;88.64;99846.44;5009136;28;20409;-66
2023/03/30 08:19:57;;;;;;;8.85;5.22;;;;;;;11.34;88.19;99850.22;5030744;28;20137;-66
2023/03/30 08:22:24;;;;;;;6.45;4.47;;;;;;;11.47;86.76;99842.25;5025903;28;20925;-65
2023/03/30 08:24:51;;;;;;;6.68;4.22;;;;;;;11.55;86.51;99837.25;5036320;28;20449;-66
2023/03/30 08:27:18;;;;;;;8.38;4.40;;;;;;;11.66;85.62;99843.41;5038946;28;20046;-65
2023/03/30 08:29:45;;;;;;;7.25;4.25;;;;;;;11.81;85.72;99817.66;5048251;28;20061;-66
2023/03/30 08:32:13;;;;;;;13.27;4.78;;;;;;;11.87;84.01;99827.75;5006954;28;20064;-67
2023/03/30 08:34:40;;;;;;;11.65;4.55;;;;;;;12.00;83.82;99816.25;5028349;28;20064;-66
2023/03/30 08:37:07;;;;;;;8.15;4.57;;;;;;;12.11;83.47;99816.25;5011357;28;20057;-66
2023/03/30 08:39:35;;;;;;;10.23;4.80;;;;;;;12.26;82.66;99811.59;5037611;28;20768;-65
2023/03/30 08:42:16;;;;;;;10.18;4.70;;;;;;;12.44;81.27;99809.28;5030468;28;20518;-67
2023/03/30 08:44:45;;;;;;;7.97;4.35;;;;;;;12.66;79.85;99815.38;5032590;28;20062;-66
2023/03/30 08:47:15;;;;;;;7.82;3.88;;;;;;;12.85;79.57;99813.88;5036885;28;20061;-67
2023/03/30 08:50:01;;;;;;;6.22;3.85;;;;;;;13.04;78.34;99813.22;5035380;28;20172;-66
2023/03/30 08:52:29;;;;;;;8.32;3.38;;;;;;;13.20;77.00;99829.50;5013554;28;20045;-67
2023/03/30 08:54:56;;;;;;;4.97;3.22;;;;;;;13.46;76.73;99814.13;5030655;28;20079;-67
2023/03/30 08:57:46;;;;;;;7.65;3.97;;;;;;;13.74;75.67;99807.34;5034661;28;20049;-67
2023/03/30 09:00:40;;;;;;;9.23;2.90;;;;;;;13.88;74.31;99803.53;5016860;28;20049;-67
2023/03/30 09:03:15;;;;;;;6.68;2.63;;;;;;;13.92;72.47;99800.50;5035064;28;20042;-67
2023/03/30 09:06:07;;;;;;;14.05;3.20;;;;;;;14.02;71.01;99802.34;5016118;28;20136;-67
2023/03/30 09:08:34;;;;;;;7.07;3.03;;;;;;;14.10;70.38;99810.47;5035166;28;20052;-66
2023/03/30 09:11:05;;;;;;;10.02;2.85;;;;;;;14.18;70.55;99806.19;5032553;28;20467;-67
2023/03/30 09:13:35;;;;;;;8.68;3.10;;;;;;;14.32;70.29;99806.75;5031422;28;20045;-67
2023/03/30 09:16:02;;;;;;;8.18;2.92;;;;;;;14.46;69.77;99806.41;5036042;28;20053;-67
2023/03/30 09:18:31;;;;;;;9.02;3.15;;;;;;;14.53;69.80;99804.91;5028139;28;20115;-67
2023/03/30 09:21:00;;;;;;;14.38;2.95;;;;;;;14.56;68.75;99804.66;5013581;28;20513;-67
2023/03/30 09:23:30;;;;;;;9.00;3.42;;;;;;;14.52;68.41;99792.66;5018624;28;20052;-67
2023/03/30 09:26:01;;;;;;;17.50;3.40;;;;;;;14.62;68.84;99801.44;5014556;28;20450;-67
2023/03/30 09:28:33;;;;;;;9.73;2.60;;;;;;;14.67;68.87;99801.88;4991474;28;20057;-67
2023/03/30 09:31:02;;;;;;;8.15;2.55;;;;;;;14.72;68.30;99785.56;5001268;28;20128;-69
2023/03/30 09:33:48;;;;;;;10.73;3.03;;;;;;;14.93;68.30;99804.00;5011371;28;20159;-67
2023/03/30 09:36:25;;;;;;;7.72;3.67;;;;;;;14.92;67.23;99791.75;5020197;28;20490;-68
2023/03/30 09:38:53;;;;;;;7.00;2.33;;;;;;;14.95;67.18;99796.78;5018048;28;20577;-67
2023/03/30 09:41:36;;;;;;;10.73;3.10;;;;;;;14.77;67.72;99795.75;5019915;28;20054;-67
2023/03/30 09:44:34;;;;;;;12.75;3.30;;;;;;;14.95;67.96;99802.06;5008298;28;20152;-67
2023/03/30 09:47:19;;;;;;;9.55;3.05;;;;;;;14.88;68.02;99793.00;5020521;28;20063;-68
2023/03/30 09:49:46;;;;;;;8.35;2.60;;;;;;;14.88;67.95;99798.28;5008331;28;20057;-67
2023/03/30 09:52:21;;;;;;;12.38;3.70;;;;;;;14.93;67.34;99809.31;5023612;28;20064;-68
2023/03/30 09:54:48;;;;;;;10.27;3.47;;;;;;;14.96;67.85;99806.38;5020304;28;20050;-67
2023/03/30 09:57:25;;;;;;;7.72;3.05;;;;;;;15.03;67.57;99802.19;5014190;28;20049;-68
2023/03/30 09:59:55;;;;;;;9.90;3.05;;;;;;;15.08;67.28;99797.31;4997361;28;20866;-67
2023/03/30 10:02:26;;;;;;;8.20;3.25;;;;;;;15.11;67.66;99805.00;5010867;28;21211;-67
2023/03/30 10:04:56;;;;;;;14.27;3.28;;;;;;;14.92;68.09;99810.28;5016983;28;20053;-67
2023/03/30 10:07:28;;;;;;;6.95;2.30;;;;;;;14.87;67.84;99817.81;5026305;28;20048;-68
2023/03/30 10:09:57;;;;;;;14.38;3.60;;;;;;;14.91;67.55;99824.53;5015972;28;20059;-66
2023/03/30 10:12:25;;;;;;;9.63;2.58;;;;;;;14.85;68.43;99814.47;5024098;28;20049;-64
2023/03/30 10:14:59;;;;;;;10.07;2.70;;;;;;;14.85;67.78;99817.09;4999382;28;20064;-65
2023/03/30 10:17:27;;;;;;;9.63;2.70;;;;;;;14.82;68.53;99826.19;5004274;28;20057;-66
2023/03/30 10:20:28;;;;;;;7.82;2.42;;;;;;;14.84;68.66;99826.88;5019843;28;20046;-66
2023/03/30 10:23:12;;;;;;;6.20;2.67;;;;;;;14.80;68.76;99816.69;4969564;28;20049;-66
2023/03/30 10:25:41;;;;;;;12.27;3.38;;;;;;;14.80;69.01;99830.75;5004201;28;20145;-66
2023/03/30 10:28:20;;;;;;;7.57;2.85;;;;;;;14.75;69.35;99824.22;5024926;28;20064;-67
2023/03/30 10:30:54;;;;;;;9.38;3.00;;;;;;;14.88;68.90;99822.13;5003175;28;20052;-67
2023/03/30 10:33:22;;;;;;;6.70;2.97;;;;;;;14.87;69.25;99831.06;5015014;28;20045;-67
2023/03/30 10:35:52;;;;;;;10.95;2.83;;;;;;;14.87;69.90;99821.31;5019516;28;20054;-67
2023/03/30 10:38:20;;;;;;;10.77;2.80;;;;;;;14.94;68.93;99814.47;5018893;28;20413;-67
2023/03/30 10:40:50;;;;;;;9.27;3.05;;;;;;;15.00;69.10;99813.09;5006958;28;20559;-67
2023/03/30 10:43:21;;;;;;;10.98;2.63;;;;;;;14.97;68.83;99804.56;5006390;28;20053;-67
2023/03/30 10:45:51;;;;;;;7.68;3.13;;;;;;;15.10;68.43;99795.38;5001385;28;20154;-66
2023/03/30 10:48:35;;;;;;;9.65;2.70;;;;;;;15.22;68.31;99801.38;5026748;28;20060;-67
2023/03/30 10:51:13;;;;;;;10.23;3.20;;;;;;;15.35;67.73;99806.38;5007420;28;20067;-66
2023/03/30 10:54:16;;;;;;;9.65;2.53;;;;;;;15.51;67.72;99800.50;5021268;28;20068;-68
2023/03/30 10:57:09;;;;;;;14.23;3.25;;;;;;;15.68;66.73;99787.38;5017697;28;20094;-67
2023/03/30 10:59:57;;;;;;;8.40;2.65;;;;;;;15.73;66.47;99794.06;5005255;28;20050;-67
2023/03/30 11:02:53;;;;;;;7.75;2.20;;;;;;;15.91;65.92;99784.38;5022409;28;20075;-67
2023/03/30 11:05:32;;;;;;;7.07;2.75;;;;;;;16.05;66.20;99799.84;5015916;28;20048;-66
2023/03/30 11:08:03;;;;;;;9.15;2.60;;;;;;;16.19;65.98;99787.91;5004990;28;20068;-66
2023/03/30 11:10:34;;;;;;;7.60;3.10;;;;;;;16.16;65.66;99802.28;5002091;28;20387;-66
2023/03/30 11:13:05;;;;;;;9.65;2.30;;;;;;;16.02;65.88;99789.50;5017753;28;20057;-66
2023/03/30 11:15:49;;;;;;;12.40;2.72;;;;;;;16.00;66.16;99791.47;5026797;28;20053;-67
2023/03/30 11:18:45;;;;;;;7.22;2.85;;;;;;;16.00;65.99;99791.47;5004373;28;20463;-67
2023/03/30 11:21:43;;;;;;;7.03;2.85;;;;;;;16.25;65.67;99778.50;4994100;28;20057;-66
2023/03/30 11:24:16;;;;;;;10.40;3.03;;;;;;;16.36;65.26;99781.81;5010428;28;20490;-67
2023/03/30 11:27:07;;;;;;;12.80;2.67;;;;;;;16.28;64.95;99772.91;5024580;28;20045;-66
2023/03/30 11:29:55;;;;;;;12.90;2.67;;;;;;;16.27;65.34;99772.06;5008545;28;20060;-66
2023/03/30 11:33:01;;;;;;;15.38;3.60;;;;;;;16.28;65.23;99794.16;5025612;28;20049;-67
2023/03/30 11:35:54;;;;;;;10.90;2.85;;;;;;;16.23;66.32;99781.31;5027650;28;20065;-68
2023/03/30 11:38:32;;;;;;;13.05;3.17;;;;;;;16.18;65.25;99771.13;5007171;28;20062;-67
2023/03/30 11:41:05;;;;;;;9.13;2.60;;;;;;;16.43;64.65;99792.66;5023640;28;20428;-66
2023/03/30 11:43:32;;;;;;;16.05;3.00;;;;;;;16.73;64.02;99772.94;5009206;28;20660;-67
2023/03/30 11:46:02;;;;;;;8.52;2.60;;;;;;;16.79;63.80;99761.69;5035364;28;20071;-66
2023/03/30 11:48:55;;;;;;;11.10;2.63;;;;;;;16.87;64.13;99758.28;5014079;28;20055;-65